Dorchester, MA (02124)

10:32 PM EDT on September 04, 2015 (GMT -0400)
Milton Hill | | Change Station
CLOSE
Current Station
Personal Weather Station
Location: Milton, MA
Elevation: 113 ft
Nearby Weather Stations

Elev 113 ft 42.26 °N, 71.06 °W | Updated 12 minutes ago

Partly Cloudy
Partly Cloudy
61.1 °F
Feels Like 61.1 °F
N
0.0
Wind Variable Wind from ENE
Gusts 0.0 mph

Today
High -- | Low -- °F
--% Chance of Precip.
Yesterday
High -- | Low -- °F
Precip. -- in
6:12 AM 7:13 PM
Waning Gibbous, 53% visible
Pressure 30.26 in
Visibility 10.0 miles
Clouds Few 2500 ft
Dew Point 59 °F
Humidity 91%
Rainfall 0.00 in
Snow Depth Not available.
UV 0 out of 12
Pollen 8.50 out of 12
Air Quality Not available.
Flu Activity Not available.
METAR KBOS 050154Z 06004KT 10SM FEW025 17/14 A3026 RMK AO2 SLP247 T01720144
Pressure 30.26 in
Visibility 10.0 miles
Clouds Few 2500 ft
Dew Point 59 °F
Humidity 91%
Rainfall 0.00 in
Snow Depth Not available.
UV 0 out of 12
Pollen 8.50 out of 12
Air Quality Not available.
Flu Activity Not available.
METAR KBOS 050154Z 06004KT 10SM FEW025 17/14 A3026 RMK AO2 SLP247 T01720144

10-Day Weather Forecast

×

Almanac

Astronomy

Sep. 04, 2015 Rise Set
Actual Time
Civil Twilight
Nautical Twilight
Astronomical Twilight
Moon
Length of Visible Light
Length of Day
Tomorrow will be .
, % of the Moon is Illuminated

Today's Extremes

State Highs State Lows

Community

WunderPhotos

Upload Photos

1,852,393 photos uploaded!

WunderBlogs® & News

Nearby

Air Quality

  Air Quality AQ Index Pollutant
Not available.

Snow Depth

Station Depth Elevation

Earthquake Activity

City Distance Mag. Time & Date
Minimum magnitude displayed is 2.5.

Coastal Water Temperatures

Place Temperature

Stations

Nearby Weather Stations

Station Location Temp. Windchill Dew Point Humidity Wind Precip. Elev Updated Type